Time;durP1;ratioP1;P1;durP2;ratioP2;P2;SDS_P1;SDS_P2;PMS_P1;PMS_P2;Temp;Humidity;BMP_temperature;BMP_pressure;BME280_temperature;BME280_humidity;BME280_pressure;Samples;Min_cycle;Max_cycle;Signal;HPM_P1;HPM_P2
2021/11/24 00:01:27;;;;;;;0.40;0.40;;;6.90;93.10;;;;;;4877414;29;20495;-82
2021/11/24 00:03:55;;;;;;;0.47;0.45;;;6.80;93.10;;;;;;4883867;29;20041;-82
2021/11/24 00:06:21;;;;;;;0.50;0.50;;;6.80;93.10;;;;;;4897639;29;20057;-82
2021/11/24 00:08:48;;;;;;;0.30;0.30;;;6.80;93.10;;;;;;4880029;29;20037;-82
2021/11/24 00:11:15;;;;;;;0.43;0.43;;;6.90;93.10;;;;;;4880542;29;20476;-82
2021/11/24 00:13:41;;;;;;;0.60;0.50;;;6.90;93.10;;;;;;4895734;29;20040;-82
2021/11/24 00:16:07;;;;;;;0.50;0.50;;;6.80;93.00;;;;;;4876418;29;20037;-82
2021/11/24 00:18:33;;;;;;;0.43;0.40;;;6.80;93.00;;;;;;4862457;29;20065;-82
2021/11/24 00:21:02;;;;;;;0.82;0.47;;;6.80;93.00;;;;;;4861955;29;20386;-82
2021/11/24 00:23:28;;;;;;;0.38;0.30;;;6.80;93.00;;;;;;4861821;29;20547;-82
2021/11/24 00:25:54;;;;;;;0.65;0.50;;;6.80;93.00;;;;;;4862021;29;20051;-82
2021/11/24 00:28:26;;;;;;;0.43;0.43;;;6.80;93.00;;;;;;4862126;29;20061;-82
2021/11/24 00:30:52;;;;;;;0.88;0.70;;;6.80;93.00;;;;;;4862022;29;20033;-82
2021/11/24 00:33:20;;;;;;;0.88;0.80;;;6.90;93.00;;;;;;4861937;29;20045;-82
2021/11/24 00:35:52;;;;;;;0.57;0.40;;;6.90;93.00;;;;;;4861835;29;20132;-82
2021/11/24 00:38:20;;;;;;;0.43;0.43;;;6.80;92.90;;;;;;4862556;29;20045;-82
2021/11/24 00:40:48;;;;;;;0.43;0.43;;;6.80;93.00;;;;;;4862186;29;20484;-82
2021/11/24 00:43:14;;;;;;;1.83;0.98;;;6.80;93.00;;;;;;4862657;29;20052;-82
2021/11/24 00:45:40;;;;;;;0.68;0.65;;;6.70;93.00;;;;;;4861746;29;20045;-82
2021/11/24 00:48:06;;;;;;;1.25;0.77;;;6.80;93.10;;;;;;4876717;29;20040;-82
2021/11/24 00:50:32;;;;;;;0.40;0.40;;;6.70;93.00;;;;;;4893391;29;20037;-82
2021/11/24 00:52:58;;;;;;;0.77;0.52;;;6.70;93.00;;;;;;4893761;29;20060;-82
2021/11/24 00:55:24;;;;;;;1.05;0.80;;;6.70;93.10;;;;;;4879313;29;20063;-82
2021/11/24 00:57:52;;;;;;;1.77;0.80;;;6.80;93.10;;;;;;4880792;29;20063;-82
2021/11/24 01:00:18;;;;;;;1.10;0.90;;;6.80;93.10;;;;;;4896980;29;20067;-82
2021/11/24 01:02:44;;;;;;;0.90;0.70;;;6.70;93.10;;;;;;4881570;29;20097;-82
2021/11/24 01:05:16;;;;;;;1.02;0.82;;;6.70;93.10;;;;;;4876757;29;20041;-82
2021/11/24 01:07:42;;;;;;;2.10;0.70;;;6.70;93.10;;;;;;4876388;29;20054;-82
2021/11/24 01:10:08;;;;;;;0.90;0.70;;;6.70;93.00;;;;;;4861385;29;20040;-81
2021/11/24 01:12:38;;;;;;;0.95;0.80;;;6.70;93.10;;;;;;4861266;29;20123;-83
2021/11/24 01:15:05;;;;;;;0.95;0.60;;;6.60;93.10;;;;;;4876742;29;20472;-82
2021/11/24 01:17:31;;;;;;;0.70;0.70;;;6.60;93.10;;;;;;4892703;29;20044;-82
2021/11/24 01:19:57;;;;;;;0.82;0.60;;;6.60;93.10;;;;;;4902773;29;20045;-81
2021/11/24 01:22:23;;;;;;;0.60;0.45;;;6.60;93.20;;;;;;4876935;29;20492;-82
2021/11/24 01:24:49;;;;;;;1.17;0.65;;;6.70;93.20;;;;;;4877190;29;20129;-82
2021/11/24 01:27:14;;;;;;;1.23;0.85;;;6.60;93.20;;;;;;4876980;29;20136;-82
2021/11/24 01:29:40;;;;;;;0.50;0.45;;;6.50;93.10;;;;;;4876525;29;20135;-82
2021/11/24 01:32:07;;;;;;;0.57;0.40;;;6.50;93.20;;;;;;4876387;29;20037;-82
2021/11/24 01:34:35;;;;;;;0.47;0.40;;;6.50;93.20;;;;;;4862691;29;20040;-82
2021/11/24 01:37:01;;;;;;;0.60;0.43;;;6.50;93.20;;;;;;4833762;29;20073;-82
2021/11/24 01:39:26;;;;;;;0.88;0.50;;;6.50;93.20;;;;;;4863543;29;20396;-82
2021/11/24 01:41:54;;;;;;;0.65;0.65;;;6.50;93.20;;;;;;4842919;29;20128;-82
2021/11/24 01:44:25;;;;;;;0.50;0.50;;;6.40;93.20;;;;;;4858089;29;20041;-82
2021/11/24 01:46:54;;;;;;;0.57;0.30;;;6.40;93.20;;;;;;4857902;29;20135;-82
2021/11/24 01:49:22;;;;;;;0.85;0.70;;;6.40;93.20;;;;;;4842225;29;20081;-81
2021/11/24 01:51:48;;;;;;;1.02;0.63;;;6.40;93.20;;;;;;4827462;29;20112;-82
2021/11/24 01:54:16;;;;;;;1.95;0.70;;;6.40;93.20;;;;;;4842166;29;20062;-82
2021/11/24 01:56:42;;;;;;;1.17;0.70;;;6.40;93.20;;;;;;4842361;29;20087;-82
2021/11/24 01:59:15;;;;;;;1.23;0.63;;;6.30;93.20;;;;;;4842428;29;20536;-82
2021/11/24 02:01:45;;;;;;;0.93;0.50;;;6.30;93.20;;;;;;4843336;29;20049;-82
2021/11/24 02:04:12;;;;;;;0.73;0.52;;;6.30;93.20;;;;;;4842708;29;20041;-82
2021/11/24 02:06:41;;;;;;;1.33;0.73;;;6.30;93.20;;;;;;4848417;29;20057;-82
2021/11/24 02:09:08;;;;;;;1.02;0.60;;;6.40;93.20;;;;;;4895325;29;20764;-82
2021/11/24 02:12:04;;;;;;;0.75;0.40;;;6.30;93.20;;;;;;4859438;29;20037;-82
2021/11/24 02:14:53;;;;;;;0.77;0.52;;;6.30;93.20;;;;;;4854037;29;20054;-82
2021/11/24 02:18:00;;;;;;;0.52;0.50;;;6.40;93.20;;;;;;4856471;29;20104;-82
2021/11/24 02:24:29;;;;;;;0.63;0.50;;;6.40;93.20;;;;;;4801139;29;20485;-82
2021/11/24 02:27:39;;;;;;;0.70;0.50;;;6.30;93.20;;;;;;4770486;29;20060;-82
2021/11/24 02:30:55;;;;;;;0.77;0.55;;;6.20;93.20;;;;;;4728328;30;20132;-82
2021/11/24 02:33:59;;;;;;;0.47;0.40;;;6.20;93.20;;;;;;4642329;30;20209;-82
2021/11/24 02:40:14;;;;;;;0.50;0.50;;;6.10;93.20;;;;;;4579938;31;20056;-82
2021/11/24 02:42:54;;;;;;;0.40;0.40;;;6.00;93.30;;;;;;4542209;31;20110;-82
2021/11/24 02:46:08;;;;;;;0.82;0.40;;;6.00;93.30;;;;;;4528369;31;20059;-82
2021/11/24 02:52:04;;;;;;;0.45;0.40;;;6.00;93.40;;;;;;4523729;31;20081;-82
2021/11/24 02:54:55;;;;;;;0.43;0.40;;;5.80;93.30;;;;;;4584694;31;20060;-82
2021/11/24 02:58:21;;;;;;;0.65;0.30;;;5.80;93.30;;;;;;4568842;31;20256;-82
2021/11/24 03:15:42;;;;;;;0.40;0.40;;;5.70;93.60;;;;;;4546222;31;20037;-82
2021/11/24 03:18:53;;;;;;;1.02;0.70;;;5.60;93.40;;;;;;4561017;31;20130;-82
2021/11/24 03:30:02;;;;;;;0.43;0.40;;;5.50;93.40;;;;;;4668244;30;20184;-82
2021/11/24 03:46:31;;;;;;;0.40;0.40;;;5.20;93.40;;;;;;4587635;31;20143;-82
2021/11/24 03:52:47;;;;;;;0.20;0.20;;;5.20;93.40;;;;;;4618507;31;20047;-82
2021/11/24 04:02:23;;;;;;;0.98;0.43;;;5.30;93.40;;;;;;4537358;31;20584;-82
2021/11/24 04:05:07;;;;;;;0.80;0.70;;;5.30;93.30;;;;;;4583999;31;20198;-83
2021/11/24 04:17:17;;;;;;;1.40;0.98;;;5.10;93.30;;;;;;4581157;31;20156;-83
2021/11/24 04:20:37;;;;;;;1.10;0.57;;;5.20;93.30;;;;;;4545869;31;20057;-83
2021/11/24 04:31:07;;;;;;;0.47;0.40;;;5.20;93.30;;;;;;4466481;31;20059;-83
2021/11/24 04:55:39;;;;;;;0.52;0.40;;;5.20;93.10;;;;;;4541812;31;20080;-83
2021/11/24 04:58:27;;;;;;;0.35;0.35;;;5.20;93.10;;;;;;4503101;31;20067;-83
2021/11/24 05:18:31;;;;;;;0.70;0.68;;;5.40;93.10;;;;;;4526102;31;20061;-83
2021/11/24 05:24:56;;;;;;;0.50;0.50;;;5.40;93.10;;;;;;4566655;31;20616;-83
2021/11/24 05:28:37;;;;;;;0.40;0.40;;;5.40;93.10;;;;;;4610030;31;20099;-83
2021/11/24 05:31:33;;;;;;;0.75;0.50;;;5.30;93.10;;;;;;4587724;31;20596;-83
2021/11/24 05:48:54;;;;;;;0.20;0.20;;;5.50;93.10;;;;;;4497481;31;20081;-82
2021/11/24 05:51:20;;;;;;;1.00;0.60;;;5.50;93.10;;;;;;4498730;31;20047;-82
2021/11/24 05:53:46;;;;;;;0.38;0.38;;;5.50;93.00;;;;;;4498238;31;20138;-82
2021/11/24 05:56:12;;;;;;;0.30;0.30;;;5.60;93.10;;;;;;4484675;31;20062;-82
2021/11/24 05:58:38;;;;;;;0.75;0.40;;;5.60;93.10;;;;;;4522493;31;20041;-81
2021/11/24 06:01:03;;;;;;;0.55;0.45;;;5.60;93.00;;;;;;4581050;31;20048;-82
2021/11/24 06:03:29;;;;;;;0.50;0.50;;;5.60;93.00;;;;;;4612089;31;20047;-83
2021/11/24 06:05:55;;;;;;;0.88;0.65;;;5.80;93.10;;;;;;4611914;31;20055;-82
2021/11/24 06:08:24;;;;;;;0.50;0.45;;;5.70;93.00;;;;;;4611977;31;20055;-81
2021/11/24 06:10:49;;;;;;;0.55;0.40;;;5.70;93.00;;;;;;4624730;31;20063;-82
2021/11/24 06:13:15;;;;;;;0.47;0.40;;;5.70;93.00;;;;;;4635327;30;20506;-81
2021/11/24 06:15:44;;;;;;;1.00;0.50;;;5.70;93.00;;;;;;4692206;30;20074;-81
2021/11/24 06:18:09;;;;;;;0.90;0.60;;;5.70;93.00;;;;;;4716304;30;20388;-82
2021/11/24 06:20:36;;;;;;;0.50;0.50;;;5.70;93.10;;;;;;4784890;29;20063;-81
2021/11/24 06:23:04;;;;;;;0.45;0.30;;;5.80;93.10;;;;;;4839923;29;20057;-82
2021/11/24 06:25:30;;;;;;;0.50;0.50;;;5.70;93.10;;;;;;4821076;29;20410;-82
2021/11/24 06:27:56;;;;;;;0.57;0.47;;;5.90;93.10;;;;;;4820837;29;20046;-82
2021/11/24 06:30:22;;;;;;;0.93;0.70;;;5.80;93.10;;;;;;4821037;29;20048;-81
2021/11/24 06:32:47;;;;;;;0.73;0.50;;;5.80;93.10;;;;;;4805906;29;20036;-82
2021/11/24 06:35:14;;;;;;;0.63;0.55;;;5.80;93.10;;;;;;4821017;29;20038;-83
2021/11/24 06:37:42;;;;;;;0.80;0.50;;;5.80;93.00;;;;;;4820655;29;20047;-82
2021/11/24 06:40:15;;;;;;;0.50;0.50;;;5.80;93.00;;;;;;4802921;29;20051;-83
2021/11/24 06:42:52;;;;;;;0.90;0.60;;;5.80;93.00;;;;;;4770963;29;20059;-84
2021/11/24 06:45:38;;;;;;;0.75;0.55;;;5.80;93.00;;;;;;4802085;29;20068;-84
2021/11/24 06:48:22;;;;;;;1.65;1.08;;;5.90;93.10;;;;;;4766118;30;20048;-81
2021/11/24 06:51:02;;;;;;;0.60;0.40;;;5.90;93.10;;;;;;4757630;30;20480;-84
2021/11/24 06:53:31;;;;;;;0.80;0.60;;;5.90;93.10;;;;;;4771208;30;20101;-84
2021/11/24 06:56:17;;;;;;;0.40;0.40;;;5.90;93.10;;;;;;4767017;29;20047;-84
2021/11/24 06:58:47;;;;;;;1.17;0.68;;;5.90;93.10;;;;;;4795562;29;20040;-83
2021/11/24 07:01:13;;;;;;;0.60;0.50;;;5.90;93.10;;;;;;4778945;29;20104;-83
2021/11/24 07:03:41;;;;;;;0.82;0.55;;;5.90;93.10;;;;;;4783944;29;20515;-85
2021/11/24 07:06:10;;;;;;;1.13;0.50;;;5.90;93.10;;;;;;4798760;29;20064;-84
2021/11/24 07:08:39;;;;;;;0.63;0.55;;;6.00;93.10;;;;;;4783536;29;20533;-85
2021/11/24 07:11:11;;;;;;;1.13;0.70;;;5.90;93.10;;;;;;4782524;29;20043;-84
2021/11/24 07:14:27;;;;;;;0.82;0.65;;;6.00;93.10;;;;;;4762159;30;20136;-84
2021/11/24 07:20:52;;;;;;;1.27;0.60;;;6.00;93.10;;;;;;4735689;30;20142;-83
2021/11/24 07:34:47;;;;;;;0.70;0.50;;;6.00;93.00;;;;;;4593507;31;20135;-84
2021/11/24 07:40:40;;;;;;;0.60;0.57;;;6.00;93.00;;;;;;4515424;31;20043;-80
2021/11/24 07:43:07;;;;;;;0.30;0.30;;;6.00;93.10;;;;;;4525618;31;20047;-79
2021/11/24 07:49:15;;;;;;;0.77;0.52;;;6.00;93.10;;;;;;4488678;31;20063;-80
2021/11/24 08:03:38;;;;;;;0.95;0.50;;;5.90;93.10;;;;;;4549706;31;20060;-83
2021/11/24 08:09:32;;;;;;;0.57;0.40;;;6.00;93.10;;;;;;4553464;31;20451;-81
2021/11/24 08:12:01;;;;;;;0.70;0.50;;;5.90;93.10;;;;;;4560102;31;20132;-80
2021/11/24 08:23:06;;;;;;;1.45;0.68;;;6.20;93.20;;;;;;4495115;31;20216;-82
2021/11/24 08:26:23;;;;;;;1.38;0.80;;;6.10;93.10;;;;;;4522284;31;20084;-82
2021/11/24 08:29:58;;;;;;;0.60;0.50;;;6.10;93.00;;;;;;4557413;31;20076;-80
2021/11/24 08:36:03;;;;;;;1.60;0.90;;;6.30;93.00;;;;;;4612259;31;20104;-78
2021/11/24 08:38:30;;;;;;;2.50;0.82;;;6.30;92.90;;;;;;4597803;31;20040;-77
2021/11/24 08:40:55;;;;;;;2.42;0.85;;;6.30;92.90;;;;;;4596200;31;20646;-78
2021/11/24 08:59:21;;;;;;;1.30;0.82;;;6.50;92.80;;;;;;4434462;32;20072;-79
2021/11/24 09:01:47;;;;;;;1.20;0.77;;;6.70;92.80;;;;;;4481284;31;20059;-80
2021/11/24 09:04:13;;;;;;;1.73;0.68;;;6.70;92.80;;;;;;4482745;31;20063;-80
2021/11/24 09:06:39;;;;;;;1.63;0.90;;;6.70;92.80;;;;;;4482281;31;20067;-81
2021/11/24 09:09:06;;;;;;;1.13;0.80;;;6.70;92.80;;;;;;4467923;32;20063;-78
2021/11/24 09:11:32;;;;;;;1.08;0.80;;;6.70;92.80;;;;;;4474099;31;20054;-79
2021/11/24 09:13:58;;;;;;;0.82;0.60;;;6.70;92.80;;;;;;4536712;31;20068;-79
2021/11/24 09:16:34;;;;;;;0.85;0.52;;;6.80;92.90;;;;;;4562119;31;20062;-78
2021/11/24 09:19:13;;;;;;;0.90;0.60;;;6.90;92.80;;;;;;4498401;31;20760;-81
2021/11/24 09:28:09;;;;;;;1.10;0.63;;;7.00;92.80;;;;;;4645794;30;20441;-81
2021/11/24 09:46:59;;;;;;;1.40;0.70;;;7.20;92.70;;;;;;4774915;29;20055;-84
2021/11/24 09:49:27;;;;;;;2.50;1.20;;;7.30;92.70;;;;;;4765096;30;20192;-78
2021/11/24 09:52:00;;;;;;;1.95;1.02;;;7.30;92.70;;;;;;4772335;30;20058;-79
2021/11/24 09:55:05;;;;;;;1.10;0.65;;;7.40;92.70;;;;;;4728815;30;20053;-83
2021/11/24 10:05:38;;;;;;;1.50;0.90;;;7.60;92.60;;;;;;4677299;30;20535;-78
2021/11/24 10:08:44;;;;;;;0.80;0.50;;;7.70;92.60;;;;;;4660204;30;20146;-80
2021/11/24 10:11:11;;;;;;;0.95;0.65;;;7.80;92.60;;;;;;4639276;30;20046;-80
2021/11/24 10:13:42;;;;;;;1.35;0.60;;;7.90;92.50;;;;;;4646573;30;20058;-80
2021/11/24 10:16:28;;;;;;;1.88;0.98;;;8.00;92.50;;;;;;4645048;30;20047;-81
2021/11/24 10:19:41;;;;;;;1.60;0.75;;;7.90;92.40;;;;;;4641613;30;20050;-79
2021/11/24 10:23:03;;;;;;;1.33;0.70;;;8.00;92.40;;;;;;4627915;30;20091;-80
2021/11/24 10:25:35;;;;;;;0.93;0.70;;;8.00;92.50;;;;;;4625905;30;20138;-78
2021/11/24 10:35:27;;;;;;;0.93;0.55;;;8.20;92.60;;;;;;4607976;30;20091;-82
2021/11/24 10:38:14;;;;;;;0.57;0.40;;;8.00;92.50;;;;;;4650576;30;20486;-80
2021/11/24 10:40:42;;;;;;;0.88;0.50;;;7.90;92.50;;;;;;4649301;30;20145;-79
2021/11/24 10:43:13;;;;;;;1.10;0.65;;;8.10;92.60;;;;;;4663416;30;20133;-78
2021/11/24 10:45:50;;;;;;;1.10;0.73;;;8.00;92.60;;;;;;4651470;30;20042;-77
2021/11/24 10:48:27;;;;;;;1.08;0.70;;;8.00;92.60;;;;;;4677905;30;20076;-77
2021/11/24 10:50:55;;;;;;;0.85;0.75;;;8.00;92.60;;;;;;4679155;30;20125;-80
2021/11/24 10:53:22;;;;;;;1.08;0.70;;;8.10;92.60;;;;;;4672461;30;20035;-79
2021/11/24 10:55:47;;;;;;;1.30;0.70;;;8.20;92.60;;;;;;4663763;30;20052;-79
2021/11/24 10:58:18;;;;;;;1.10;0.85;;;8.20;92.60;;;;;;4661922;30;20402;-78
2021/11/24 11:00:46;;;;;;;1.05;0.77;;;8.20;92.50;;;;;;4664843;30;20057;-78
2021/11/24 11:03:15;;;;;;;1.02;0.70;;;8.20;92.50;;;;;;4675889;30;20042;-79
2021/11/24 11:05:45;;;;;;;1.67;0.90;;;8.40;92.60;;;;;;4721387;30;20052;-78
2021/11/24 11:08:15;;;;;;;1.88;1.10;;;8.40;92.60;;;;;;4743127;30;20060;-79
2021/11/24 11:10:44;;;;;;;1.55;0.88;;;8.40;92.50;;;;;;4780218;29;20044;-78
2021/11/24 11:13:19;;;;;;;1.27;0.80;;;8.30;92.50;;;;;;4894482;29;20033;-78
2021/11/24 11:15:49;;;;;;;2.25;1.00;;;8.30;92.60;;;;;;4892044;29;20508;-78
2021/11/24 11:18:25;;;;;;;1.77;0.85;;;8.40;92.60;;;;;;4891926;29;20041;-78
2021/11/24 11:20:55;;;;;;;1.10;0.70;;;8.40;92.60;;;;;;4878226;29;20040;-78
2021/11/24 11:23:29;;;;;;;2.33;1.15;;;8.40;92.50;;;;;;4890766;29;20416;-78
2021/11/24 11:25:58;;;;;;;1.63;0.90;;;8.40;92.50;;;;;;4877720;29;20044;-78
2021/11/24 11:28:26;;;;;;;1.85;1.17;;;8.40;92.50;;;;;;4877244;29;20403;-79
2021/11/24 11:30:54;;;;;;;2.53;0.82;;;8.50;92.90;;;;;;4875666;29;20873;-79
2021/11/24 11:33:25;;;;;;;1.05;0.70;;;8.50;92.50;;;;;;4896872;29;20041;-78
2021/11/24 11:35:51;;;;;;;1.10;0.70;;;8.60;92.50;;;;;;4900758;29;20033;-76
2021/11/24 11:38:19;;;;;;;1.52;0.85;;;8.50;92.50;;;;;;4896618;29;20517;-77
2021/11/24 11:40:48;;;;;;;1.85;0.93;;;8.50;92.50;;;;;;4896262;29;20041;-80
2021/11/24 11:43:15;;;;;;;1.30;0.90;;;8.50;92.50;;;;;;4879082;29;20041;-81
2021/11/24 11:45:41;;;;;;;2.05;1.17;;;8.50;92.50;;;;;;4895251;29;20041;-81
2021/11/24 11:48:08;;;;;;;1.80;0.90;;;8.60;92.50;;;;;;4893867;29;20491;-81
2021/11/24 11:50:52;;;;;;;1.63;1.00;;;8.60;92.50;;;;;;4878193;29;20060;-81
2021/11/24 11:53:22;;;;;;;1.35;0.90;;;8.60;92.40;;;;;;4878034;29;20034;-81
2021/11/24 11:56:18;;;;;;;1.90;0.93;;;8.60;92.40;;;;;;4880250;29;20056;-81
2021/11/24 11:59:07;;;;;;;1.17;0.85;;;8.60;92.40;;;;;;4893856;29;20053;-81
2021/11/24 12:01:54;;;;;;;2.03;1.02;;;8.70;92.40;;;;;;4894023;29;20534;-81
2021/11/24 12:04:40;;;;;;;1.20;0.80;;;8.70;92.40;;;;;;4897473;29;20083;-81
2021/11/24 12:07:08;;;;;;;1.25;0.90;;;8.70;92.40;;;;;;4897992;29;20041;-81
2021/11/24 12:09:39;;;;;;;1.33;0.82;;;8.70;92.40;;;;;;4898121;29;20120;-76
2021/11/24 12:12:09;;;;;;;1.95;0.90;;;8.80;92.50;;;;;;4904892;29;20088;-78
2021/11/24 12:14:56;;;;;;;2.55;1.30;;;8.80;92.50;;;;;;4903454;29;20028;-82
2021/11/24 12:17:40;;;;;;;1.67;1.00;;;8.90;92.50;;;;;;4880694;29;20041;-81
2021/11/24 12:20:39;;;;;;;2.20;1.20;;;8.70;92.40;;;;;;4881710;29;20495;-81
2021/11/24 12:23:05;;;;;;;2.55;1.27;;;8.80;92.40;;;;;;4897518;29;20037;-81
2021/11/24 12:25:40;;;;;;;2.58;1.30;;;8.80;92.40;;;;;;4900512;29;20471;-81
2021/11/24 12:28:09;;;;;;;2.53;1.30;;;8.70;92.30;;;;;;4881683;29;20492;-76
2021/11/24 12:30:54;;;;;;;3.83;1.80;;;8.70;92.30;;;;;;4900239;29;20084;-80
2021/11/24 12:33:26;;;;;;;2.63;1.23;;;8.50;92.40;;;;;;4879834;29;20076;-80
2021/11/24 12:36:08;;;;;;;2.85;1.40;;;8.60;92.50;;;;;;4896081;29;20049;-80
2021/11/24 12:38:37;;;;;;;3.38;1.30;;;8.50;92.50;;;;;;4881647;29;20044;-79
2021/11/24 12:41:06;;;;;;;2.28;1.35;;;8.50;92.60;;;;;;4881794;29;20132;-79
2021/11/24 12:43:35;;;;;;;4.70;1.80;;;8.60;92.60;;;;;;4881824;29;20050;-79
2021/11/24 12:46:08;;;;;;;2.53;1.40;;;8.60;92.60;;;;;;4896687;29;20068;-79
2021/11/24 12:48:44;;;;;;;3.30;1.50;;;8.60;92.50;;;;;;4897189;29;20092;-79
2021/11/24 12:51:17;;;;;;;3.05;1.63;;;8.60;92.50;;;;;;4898980;29;20367;-79
2021/11/24 12:53:47;;;;;;;2.67;1.38;;;8.80;92.50;;;;;;4896425;29;20480;-79
2021/11/24 12:56:15;;;;;;;2.28;1.20;;;8.70;92.40;;;;;;4898745;29;20064;-79
2021/11/24 12:58:43;;;;;;;1.58;0.93;;;8.70;92.40;;;;;;4898370;29;20076;-79
2021/11/24 13:01:19;;;;;;;2.42;1.20;;;8.70;92.40;;;;;;4898387;29;20037;-79
2021/11/24 13:03:46;;;;;;;2.05;1.00;;;8.70;92.40;;;;;;4880855;29;20044;-79
2021/11/24 13:06:14;;;;;;;2.90;1.40;;;8.70;92.40;;;;;;4898683;29;20068;-79
2021/11/24 13:08:40;;;;;;;2.97;1.40;;;8.80;92.40;;;;;;4897461;29;20037;-79
2021/11/24 13:11:09;;;;;;;1.60;1.05;;;8.70;92.40;;;;;;4909740;29;20168;-79
2021/11/24 13:13:36;;;;;;;1.80;1.20;;;8.80;92.40;;;;;;4898726;29;20156;-79
2021/11/24 13:16:03;;;;;;;2.45;1.30;;;8.80;92.40;;;;;;4880185;29;20057;-79
2021/11/24 13:18:28;;;;;;;1.55;1.02;;;8.80;92.40;;;;;;4898317;29;20064;-79
2021/11/24 13:20:55;;;;;;;1.77;1.20;;;8.80;92.40;;;;;;4894434;29;20491;-79
2021/11/24 13:23:22;;;;;;;2.45;1.17;;;8.70;92.30;;;;;;4893304;29;20090;-79
2021/11/24 13:25:48;;;;;;;1.15;0.90;;;8.80;92.40;;;;;;4877457;29;20056;-78
2021/11/24 13:28:17;;;;;;;1.63;0.93;;;8.70;92.30;;;;;;4882209;29;20117;-80
2021/11/24 13:30:47;;;;;;;1.27;0.77;;;8.70;92.40;;;;;;4889495;29;20037;-80
2021/11/24 13:33:17;;;;;;;2.10;1.00;;;8.70;92.40;;;;;;4899586;29;20075;-79
2021/11/24 13:35:51;;;;;;;1.73;1.17;;;8.70;92.40;;;;;;4901218;29;20029;-80
2021/11/24 13:38:22;;;;;;;2.80;1.30;;;8.70;92.40;;;;;;4881726;29;20060;-77
2021/11/24 13:40:53;;;;;;;2.25;1.20;;;8.70;92.50;;;;;;4896708;29;20033;-80
2021/11/24 13:43:41;;;;;;;2.60;1.30;;;8.70;92.40;;;;;;4898292;29;20073;-82
2021/11/24 13:46:17;;;;;;;1.67;1.00;;;8.60;92.40;;;;;;4880182;29;20049;-81
2021/11/24 13:48:44;;;;;;;1.75;1.00;;;8.80;92.50;;;;;;4895365;29;20178;-79
2021/11/24 13:51:12;;;;;;;2.17;1.13;;;8.60;92.40;;;;;;4897933;29;20056;-79
2021/11/24 13:53:39;;;;;;;1.85;1.20;;;8.60;92.40;;;;;;4878038;29;20033;-79
2021/11/24 13:56:23;;;;;;;1.88;1.10;;;8.60;92.40;;;;;;4876052;29;20040;-79
2021/11/24 13:59:07;;;;;;;2.80;1.27;;;8.60;92.40;;;;;;4879278;29;20045;-79
2021/11/24 14:01:44;;;;;;;2.40;1.30;;;8.60;92.50;;;;;;4891288;29;20043;-79
2021/11/24 14:04:13;;;;;;;2.25;1.00;;;8.60;92.40;;;;;;4876707;29;20249;-79
2021/11/24 14:06:49;;;;;;;1.40;0.95;;;8.60;92.40;;;;;;4891526;29;20052;-79
2021/11/24 14:09:22;;;;;;;1.33;0.80;;;8.50;92.50;;;;;;4892613;29;20046;-79
2021/11/24 14:12:07;;;;;;;2.45;1.20;;;8.50;92.50;;;;;;4876985;29;20033;-79
2021/11/24 14:14:48;;;;;;;2.08;1.00;;;8.50;92.50;;;;;;4896121;29;20052;-80
2021/11/24 14:17:29;;;;;;;1.58;0.85;;;8.50;92.50;;;;;;4898052;29;20069;-79
2021/11/24 14:19:56;;;;;;;2.63;1.15;;;8.50;92.50;;;;;;4880448;29;20037;-80
2021/11/24 14:22:44;;;;;;;2.35;1.20;;;8.50;92.50;;;;;;4895033;29;20128;-79
2021/11/24 14:25:15;;;;;;;1.73;1.10;;;8.50;92.50;;;;;;4895252;29;20056;-78
2021/11/24 14:27:42;;;;;;;1.50;0.90;;;8.40;92.40;;;;;;4894151;29;20100;-78
2021/11/24 14:30:09;;;;;;;1.05;0.75;;;8.40;92.50;;;;;;4897534;29;20406;-78
2021/11/24 14:32:37;;;;;;;2.67;1.30;;;8.40;92.50;;;;;;4894885;29;20372;-78
2021/11/24 14:35:04;;;;;;;1.45;0.90;;;8.40;92.50;;;;;;4880107;29;20024;-78
2021/11/24 14:37:30;;;;;;;2.45;1.08;;;8.40;92.50;;;;;;4895874;29;20052;-80
2021/11/24 14:39:55;;;;;;;1.67;0.90;;;8.40;92.50;;;;;;4897180;29;20040;-76
2021/11/24 14:42:21;;;;;;;2.03;0.90;;;8.40;92.50;;;;;;4899050;29;20500;-78
2021/11/24 14:44:49;;;;;;;2.38;1.20;;;8.40;92.50;;;;;;4897861;29;20047;-78
2021/11/24 14:47:15;;;;;;;1.92;1.00;;;8.40;92.50;;;;;;4903765;29;20057;-77
2021/11/24 14:49:55;;;;;;;2.17;1.20;;;8.40;92.50;;;;;;4879229;29;20520;-79
2021/11/24 14:52:24;;;;;;;1.63;1.08;;;8.30;92.50;;;;;;4876396;29;20037;-79
2021/11/24 14:54:53;;;;;;;2.55;1.50;;;8.30;92.50;;;;;;4875900;29;20049;-79
2021/11/24 14:57:19;;;;;;;2.47;1.30;;;8.30;92.50;;;;;;4875085;29;20136;-78
2021/11/24 14:59:45;;;;;;;1.45;1.13;;;8.30;92.50;;;;;;4875740;29;20056;-77
2021/11/24 15:02:12;;;;;;;1.83;1.20;;;8.30;92.50;;;;;;4875859;29;20037;-79
2021/11/24 15:04:38;;;;;;;2.50;1.10;;;8.20;92.50;;;;;;4876369;29;20048;-78
2021/11/24 15:07:06;;;;;;;1.95;0.98;;;8.20;92.50;;;;;;4874024;29;20954;-79
2021/11/24 15:09:32;;;;;;;1.88;1.00;;;8.20;92.50;;;;;;4874203;29;20044;-78
2021/11/24 15:11:59;;;;;;;1.65;0.90;;;8.20;92.50;;;;;;4875951;29;20037;-78
2021/11/24 15:14:25;;;;;;;1.73;1.10;;;8.20;92.60;;;;;;4876929;29;20600;-79
2021/11/24 15:16:51;;;;;;;1.80;1.08;;;8.10;92.60;;;;;;4879181;29;20045;-80
2021/11/24 15:19:17;;;;;;;1.70;1.00;;;8.10;92.60;;;;;;4876048;29;20412;-79
2021/11/24 15:21:45;;;;;;;1.63;0.80;;;8.10;92.60;;;;;;4875890;29;20076;-80
2021/11/24 15:24:12;;;;;;;2.05;0.85;;;8.10;92.60;;;;;;4877057;29;20041;-79
2021/11/24 15:26:40;;;;;;;1.50;0.90;;;8.20;92.60;;;;;;4878360;29;20135;-79
2021/11/24 15:29:06;;;;;;;2.10;1.00;;;8.10;92.60;;;;;;4893298;29;20055;-79
2021/11/24 15:31:32;;;;;;;1.45;0.90;;;8.10;92.80;;;;;;4896505;29;20563;-80
2021/11/24 15:33:59;;;;;;;1.92;1.13;;;8.10;92.60;;;;;;4896187;29;20119;-79
2021/11/24 15:36:25;;;;;;;1.88;1.00;;;8.00;92.50;;;;;;4877845;29;20097;-79
2021/11/24 15:38:53;;;;;;;2.22;1.13;;;8.00;92.50;;;;;;4893765;29;20045;-80
2021/11/24 15:41:22;;;;;;;1.40;0.90;;;8.00;92.60;;;;;;4896134;29;20036;-80
2021/11/24 15:43:48;;;;;;;2.00;0.90;;;8.00;92.60;;;;;;4892924;29;20060;-81
2021/11/24 15:46:15;;;;;;;1.92;1.15;;;7.90;92.60;;;;;;4879064;29;20056;-81
2021/11/24 15:48:44;;;;;;;2.15;0.95;;;8.10;92.60;;;;;;4891453;29;20052;-80
2021/11/24 15:51:16;;;;;;;1.52;0.95;;;7.90;92.60;;;;;;4891346;29;20038;-80
2021/11/24 15:53:44;;;;;;;1.15;0.93;;;8.00;92.60;;;;;;4875562;29;20089;-80
2021/11/24 15:56:10;;;;;;;1.10;0.88;;;7.90;92.60;;;;;;4879075;29;20041;-80
2021/11/24 15:58:36;;;;;;;2.28;1.10;;;7.90;92.60;;;;;;4896275;29;20388;-80
2021/11/24 16:01:05;;;;;;;2.42;1.17;;;7.80;92.50;;;;;;4878033;29;20033;-80
2021/11/24 16:03:32;;;;;;;2.20;0.93;;;7.90;92.60;;;;;;4878676;29;20378;-81
2021/11/24 16:05:58;;;;;;;1.58;1.05;;;7.80;92.60;;;;;;4879508;29;20040;-81
2021/11/24 16:08:24;;;;;;;2.35;1.00;;;7.80;92.60;;;;;;4888914;29;20144;-82
2021/11/24 16:10:50;;;;;;;1.23;0.82;;;7.90;92.60;;;;;;4903640;29;20097;-77
2021/11/24 16:13:17;;;;;;;1.75;0.90;;;7.80;92.60;;;;;;4901654;29;20104;-77
2021/11/24 16:15:45;;;;;;;2.25;0.95;;;7.80;92.60;;;;;;4896102;29;20063;-77
2021/11/24 16:18:12;;;;;;;2.67;1.33;;;7.70;92.60;;;;;;4898054;29;20109;-79
2021/11/24 16:20:38;;;;;;;2.03;1.20;;;7.70;92.60;;;;;;4879080;29;20038;-79
2021/11/24 16:23:05;;;;;;;1.25;0.80;;;7.70;92.60;;;;;;4895842;29;20045;-78
2021/11/24 16:25:31;;;;;;;2.17;1.17;;;7.80;92.60;;;;;;4896328;29;20398;-79
2021/11/24 16:27:57;;;;;;;2.28;0.90;;;7.70;92.50;;;;;;4897487;29;20131;-79
2021/11/24 16:30:23;;;;;;;1.95;1.02;;;7.70;92.60;;;;;;4881817;29;20037;-77
2021/11/24 16:32:49;;;;;;;2.60;1.20;;;7.80;92.60;;;;;;4893972;29;20053;-79
2021/11/24 16:35:16;;;;;;;1.88;1.05;;;7.70;92.60;;;;;;4898201;29;20064;-79
2021/11/24 16:37:42;;;;;;;3.30;1.42;;;7.70;92.50;;;;;;4880975;29;20100;-81
2021/11/24 16:40:09;;;;;;;2.40;1.40;;;7.70;92.50;;;;;;4893449;29;20053;-80
2021/11/24 16:42:36;;;;;;;2.60;1.30;;;7.70;92.50;;;;;;4893420;29;20137;-81
2021/11/24 16:45:03;;;;;;;2.33;1.02;;;7.60;92.50;;;;;;4895840;29;20395;-80
2021/11/24 16:47:29;;;;;;;1.83;1.08;;;7.60;92.50;;;;;;4892263;29;20837;-80
2021/11/24 16:49:56;;;;;;;2.13;0.90;;;7.60;92.50;;;;;;4896860;29;20115;-81
2021/11/24 16:52:23;;;;;;;2.35;1.10;;;7.70;92.60;;;;;;4898905;29;20043;-81
2021/11/24 16:54:49;;;;;;;1.63;1.00;;;7.60;92.60;;;;;;4898503;29;20037;-80
2021/11/24 16:57:15;;;;;;;1.65;0.90;;;7.60;92.50;;;;;;4899155;29;20890;-81
2021/11/24 16:59:41;;;;;;;2.47;1.20;;;7.50;92.50;;;;;;4898644;29;20033;-80
2021/11/24 17:02:07;;;;;;;2.85;1.50;;;7.50;92.60;;;;;;4899047;29;20037;-80
2021/11/24 17:04:33;;;;;;;3.08;1.60;;;7.50;92.60;;;;;;4893621;29;20093;-81
2021/11/24 17:06:59;;;;;;;2.63;1.40;;;7.40;92.60;;;;;;4879335;29;20048;-80
2021/11/24 17:09:24;;;;;;;2.53;1.20;;;7.40;92.60;;;;;;4892976;29;20065;-80
2021/11/24 17:14:00;;;;;;;2.67;1.35;;;7.30;92.40;;;;;;5155160;27;20725;-81
2021/11/24 17:16:25;;;;;;;3.13;1.48;;;7.30;92.70;;;;;;5077982;28;20039;-82
2021/11/24 17:18:51;;;;;;;1.40;0.90;;;7.20;92.70;;;;;;5094773;28;20119;-82
2021/11/24 17:21:17;;;;;;;2.05;1.13;;;7.10;92.70;;;;;;5110473;28;20477;-81
2021/11/24 17:23:43;;;;;;;2.45;1.20;;;7.00;92.80;;;;;;5112370;28;20354;-81
2021/11/24 17:26:09;;;;;;;1.30;0.95;;;6.90;92.90;;;;;;5111718;28;20043;-82